Time;durP1;ratioP1;P1;durP2;ratioP2;P2;SDS_P1;SDS_P2;PMS_P1;PMS_P2;Temp;Humidity;BMP_temperature;BMP_pressure;BME280_temperature;BME280_humidity;BME280_pressure;Samples;Min_cycle;Max_cycle;Signal;HPM_P1;HPM_P2
2021/08/25 00:01:34;;;;;;;0.70;0.70;;;22.50;50.80;;;26.14;34.68;102373.88;5093475;28;20043;-35
2021/08/25 00:04:00;;;;;;;0.80;0.80;;;22.40;50.70;;;26.13;34.67;102378.38;5093773;28;20062;-34
2021/08/25 00:06:26;;;;;;;0.70;0.70;;;22.40;50.80;;;26.14;34.78;102371.19;5093385;28;20048;-34
2021/08/25 00:08:52;;;;;;;0.70;0.70;;;22.40;50.80;;;26.11;34.63;102366.00;5093360;28;20048;-34
2021/08/25 00:11:18;;;;;;;0.70;0.70;;;22.40;50.80;;;26.10;34.62;102364.31;5093249;28;20501;-34
2021/08/25 00:13:44;;;;;;;0.73;0.73;;;22.40;50.80;;;26.09;34.67;102360.75;5075036;28;20086;-34
2021/08/25 00:16:11;;;;;;;0.85;0.80;;;22.40;50.80;;;26.08;34.63;102348.31;5093590;28;20056;-34
2021/08/25 00:18:37;;;;;;;0.80;0.80;;;22.40;50.80;;;26.09;34.74;102349.16;5093495;28;20048;-34
2021/08/25 00:21:03;;;;;;;0.70;0.70;;;22.40;50.80;;;26.07;34.63;102349.25;5093238;28;20131;-34
2021/08/25 00:23:29;;;;;;;1.27;0.80;;;22.40;50.90;;;26.07;34.73;102342.06;5093165;28;20040;-34
2021/08/25 00:25:56;;;;;;;0.70;0.70;;;22.40;50.90;;;26.05;34.74;102345.81;5093124;28;20505;-34
2021/08/25 00:28:22;;;;;;;0.60;0.60;;;22.40;50.90;;;26.07;34.66;102342.06;5092798;28;20127;-34
2021/08/25 00:30:48;;;;;;;0.77;0.70;;;22.40;50.90;;;26.06;34.67;102340.38;5093026;28;20048;-34
2021/08/25 00:33:14;;;;;;;0.80;0.80;;;22.40;50.90;;;26.06;34.51;102351.09;5093201;28;20067;-34
2021/08/25 00:35:40;;;;;;;0.80;0.80;;;22.40;51.00;;;26.01;34.60;102333.53;5092919;28;20125;-34
2021/08/25 00:38:06;;;;;;;0.63;0.63;;;22.30;50.90;;;26.02;34.94;102344.16;5092925;28;20067;-34
2021/08/25 00:40:32;;;;;;;0.70;0.70;;;22.30;51.00;;;26.02;34.76;102332.59;5093480;28;20052;-34
2021/08/25 00:43:09;;;;;;;0.55;0.55;;;22.30;51.00;;;26.00;34.79;102335.38;5092934;28;20653;-34
2021/08/25 00:45:42;;;;;;;0.63;0.63;;;22.30;51.00;;;25.97;34.91;102332.00;5091956;28;20043;-34
2021/08/25 00:48:12;;;;;;;0.75;0.73;;;22.30;51.00;;;25.99;35.01;102328.28;5093077;28;20087;-35
2021/08/25 00:50:39;;;;;;;0.63;0.63;;;22.30;51.00;;;25.97;34.77;102321.28;5092779;28;20089;-34
2021/08/25 00:53:06;;;;;;;0.70;0.70;;;22.30;51.10;;;25.98;34.79;102323.03;5092626;28;20051;-34
2021/08/25 00:55:37;;;;;;;0.80;0.73;;;22.30;51.10;;;25.95;34.75;102313.34;5092573;28;20051;-34
2021/08/25 00:58:07;;;;;;;0.57;0.57;;;22.30;51.10;;;25.97;34.86;102310.56;5093168;28;20428;-34
2021/08/25 01:00:37;;;;;;;0.60;0.60;;;22.30;51.10;;;25.96;35.04;102314.19;5093241;28;20370;-34
2021/08/25 01:03:18;;;;;;;0.88;0.60;;;22.30;51.10;;;25.94;34.88;102308.91;5074840;28;20044;-34
2021/08/25 01:05:46;;;;;;;1.00;0.90;;;22.30;51.10;;;25.98;34.77;102310.47;5092119;28;20048;-34
2021/08/25 01:08:12;;;;;;;0.90;0.80;;;22.30;51.10;;;25.94;35.02;102303.53;5092606;28;20044;-34
2021/08/25 01:10:38;;;;;;;0.80;0.80;;;22.20;51.10;;;25.93;34.86;102304.50;5092525;28;20051;-34
2021/08/25 01:13:07;;;;;;;1.15;1.00;;;22.30;51.20;;;25.95;34.96;102304.41;5092871;28;20431;-34
2021/08/25 01:15:39;;;;;;;0.60;0.60;;;22.20;51.20;;;25.93;35.27;102296.47;5092390;28;20359;-34
2021/08/25 01:18:10;;;;;;;0.80;0.77;;;22.20;51.20;;;25.93;35.04;102300.94;5092990;28;20048;-34
2021/08/25 01:20:36;;;;;;;0.70;0.70;;;22.20;51.20;;;25.93;34.93;102296.47;5074598;28;20049;-34
2021/08/25 01:23:02;;;;;;;0.90;0.88;;;22.20;51.20;;;25.89;34.92;102279.72;5092597;28;20062;-34
2021/08/25 01:25:30;;;;;;;0.70;0.68;;;22.20;51.20;;;25.89;34.97;102279.72;5073331;28;20500;-34
2021/08/25 01:28:00;;;;;;;0.55;0.55;;;22.20;51.20;;;25.90;35.08;102283.25;5072146;28;20056;-35
2021/08/25 01:30:29;;;;;;;0.65;0.65;;;22.20;51.20;;;25.89;34.88;102279.72;5092545;28;20044;-34
2021/08/25 01:32:59;;;;;;;0.60;0.60;;;22.20;51.20;;;25.90;35.02;102269.84;5092477;28;20052;-34
2021/08/25 01:35:40;;;;;;;1.13;0.70;;;22.20;51.30;;;25.87;34.97;102264.69;5092436;28;20500;-34
2021/08/25 01:38:06;;;;;;;0.75;0.75;;;22.20;51.30;;;25.89;35.03;102270.78;5092229;28;20385;-34
2021/08/25 01:40:36;;;;;;;0.60;0.60;;;22.20;51.30;;;25.83;35.02;102268.50;5092483;28;20074;-34
2021/08/25 01:43:03;;;;;;;0.60;0.60;;;22.20;51.30;;;25.87;35.01;102272.72;5091987;28;20116;-35
2021/08/25 01:45:29;;;;;;;0.93;0.82;;;22.20;51.40;;;25.86;35.01;102266.50;5092024;28;20048;-34
2021/08/25 01:47:56;;;;;;;0.75;0.73;;;22.20;51.40;;;25.84;35.10;102259.50;5091895;28;20052;-35
2021/08/25 01:50:21;;;;;;;0.60;0.60;;;22.20;51.40;;;25.87;35.08;102267.34;5092019;28;20051;-34
2021/08/25 01:52:48;;;;;;;0.70;0.70;;;22.10;51.40;;;25.82;35.14;102256.91;5092247;28;20040;-34
2021/08/25 01:55:14;;;;;;;0.63;0.63;;;22.20;51.40;;;25.84;35.08;102251.47;5091968;28;20059;-34
2021/08/25 01:57:40;;;;;;;0.70;0.70;;;22.20;51.40;;;25.83;35.10;102247.06;5093009;28;20093;-34
2021/08/25 02:00:07;;;;;;;0.65;0.65;;;22.20;51.40;;;25.81;35.02;102238.25;5096076;28;20048;-34
2021/08/25 02:02:33;;;;;;;0.75;0.75;;;22.20;51.50;;;25.81;35.08;102228.41;5095424;28;20071;-34
2021/08/25 02:04:59;;;;;;;0.70;0.70;;;22.10;51.40;;;25.80;35.12;102221.31;5095379;28;20485;-34
2021/08/25 02:07:25;;;;;;;0.70;0.70;;;22.10;51.40;;;25.81;35.19;102225.72;5095119;28;20052;-34
2021/08/25 02:09:51;;;;;;;0.90;0.85;;;22.10;51.50;;;25.80;35.13;102225.81;5095338;28;20048;-34
2021/08/25 02:12:18;;;;;;;0.80;0.70;;;22.10;51.50;;;25.80;35.22;102225.81;5095032;28;20048;-34
2021/08/25 02:14:45;;;;;;;0.60;0.60;;;22.10;51.50;;;25.79;35.10;102218.72;5095139;28;20052;-34
2021/08/25 02:17:11;;;;;;;0.57;0.57;;;22.10;51.50;;;25.78;35.21;102211.66;5095152;28;20076;-35
2021/08/25 02:19:37;;;;;;;0.88;0.70;;;22.10;51.50;;;25.79;35.22;102210.69;5094983;28;20556;-34
2021/08/25 02:22:03;;;;;;;0.60;0.60;;;22.10;51.50;;;25.78;35.18;102209.00;5094948;28;20040;-35
2021/08/25 02:24:29;;;;;;;1.45;1.25;;;22.10;51.50;;;25.76;35.11;102203.72;5094848;28;20048;-34
2021/08/25 02:26:55;;;;;;;0.73;0.73;;;22.10;51.60;;;25.78;35.21;102211.66;5094930;28;20048;-34
2021/08/25 02:29:20;;;;;;;0.60;0.60;;;22.10;51.60;;;25.74;35.21;102202.06;5095061;28;20052;-34
2021/08/25 02:31:46;;;;;;;1.02;0.93;;;22.10;51.60;;;25.77;35.27;102201.91;5094725;28;20052;-34
2021/08/25 02:34:12;;;;;;;1.17;1.00;;;22.00;52.10;;;25.74;35.13;102202.94;5094863;28;20052;-34
2021/08/25 02:36:37;;;;;;;0.60;0.60;;;22.00;51.60;;;25.75;35.21;102202.00;5095392;28;20047;-34
2021/08/25 02:39:03;;;;;;;0.85;0.70;;;22.00;51.60;;;25.72;35.31;102195.97;5094639;28;20052;-34
2021/08/25 02:41:29;;;;;;;0.52;0.52;;;22.00;51.60;;;25.72;35.22;102206.69;5094828;28;20040;-34
2021/08/25 02:43:55;;;;;;;0.60;0.60;;;22.00;51.60;;;25.73;35.16;102205.69;5095015;28;20501;-34
2021/08/25 02:46:20;;;;;;;0.80;0.70;;;22.00;51.60;;;25.72;35.32;102204.84;5094603;28;20409;-34
2021/08/25 02:48:47;;;;;;;0.63;0.60;;;22.00;51.60;;;25.73;35.19;102203.91;5094659;28;20197;-34
2021/08/25 02:51:12;;;;;;;0.98;0.85;;;22.00;51.70;;;25.73;35.28;102197.66;5094603;28;20051;-34
2021/08/25 02:53:38;;;;;;;0.75;0.70;;;22.00;51.70;;;25.74;35.24;102197.56;5094827;28;20052;-34
2021/08/25 02:56:04;;;;;;;0.60;0.60;;;22.00;51.70;;;25.70;35.28;102182.66;5094547;28;20036;-34
2021/08/25 02:58:30;;;;;;;0.82;0.80;;;22.00;51.70;;;25.70;35.09;102182.66;5094553;28;20130;-34
2021/08/25 03:00:55;;;;;;;0.63;0.60;;;22.00;51.70;;;25.70;35.28;102180.81;5094526;28;20042;-34
2021/08/25 03:03:21;;;;;;;0.80;0.70;;;22.00;51.70;;;25.69;35.20;102172.88;5094157;28;20058;-34
2021/08/25 03:05:47;;;;;;;0.65;0.65;;;22.00;52.30;;;25.68;35.18;102172.03;5094262;28;20036;-34
2021/08/25 03:08:13;;;;;;;0.60;0.60;;;22.00;51.70;;;25.70;35.44;102166.59;5094049;28;20102;-34
2021/08/25 03:10:39;;;;;;;0.50;0.50;;;22.00;51.80;;;25.70;35.29;102169.25;5094379;28;20539;-34
2021/08/25 03:13:04;;;;;;;1.38;0.65;;;22.00;51.80;;;25.68;35.21;102166.69;5094197;28;20401;-34
2021/08/25 03:15:30;;;;;;;0.70;0.70;;;22.00;51.80;;;25.66;35.40;102160.56;5094214;28;20048;-34
2021/08/25 03:17:56;;;;;;;0.80;0.80;;;22.00;51.80;;;25.68;35.26;102160.47;5094199;28;20158;-34
2021/08/25 03:20:22;;;;;;;0.88;0.80;;;22.00;51.80;;;25.65;35.51;102153.47;5093947;28;20044;-34
2021/08/25 03:22:48;;;;;;;0.57;0.57;;;21.90;51.80;;;25.70;35.31;102159.41;5094143;28;20504;-34
2021/08/25 03:25:14;;;;;;;0.60;0.60;;;22.00;51.90;;;25.67;35.34;102148.88;5094074;28;20044;-34
2021/08/25 03:27:39;;;;;;;1.00;0.80;;;22.00;51.80;;;25.69;35.34;102148.78;5093941;28;20044;-34
2021/08/25 03:30:07;;;;;;;0.60;0.60;;;22.00;51.80;;;25.71;35.16;102152.25;5093906;28;20050;-34
2021/08/25 03:32:33;;;;;;;0.60;0.60;;;22.00;51.80;;;25.67;35.24;102143.50;5093858;28;20044;-34
2021/08/25 03:34:59;;;;;;;0.60;0.60;;;22.00;51.80;;;25.71;35.36;102152.25;5094004;28;20055;-34
2021/08/25 03:37:25;;;;;;;0.60;0.60;;;22.00;51.80;;;25.72;35.20;102153.09;5093916;28;20036;-34
2021/08/25 03:39:51;;;;;;;0.70;0.70;;;22.00;51.80;;;25.70;35.48;102140.66;5093941;28;20056;-34
2021/08/25 03:42:18;;;;;;;1.00;0.90;;;22.00;51.80;;;25.69;35.19;102141.63;5093760;28;20507;-34
2021/08/25 03:44:44;;;;;;;0.60;0.60;;;22.00;52.20;;;25.73;35.25;102138.72;5093704;28;20052;-34
2021/08/25 03:47:10;;;;;;;0.65;0.65;;;22.00;51.60;;;25.75;35.17;102134.16;5093753;28;20089;-34
2021/08/25 03:49:36;;;;;;;0.50;0.50;;;22.10;51.70;;;25.76;35.26;102133.19;5093752;28;20048;-34
2021/08/25 03:52:03;;;;;;;0.70;0.70;;;22.10;51.60;;;25.73;35.30;102130.69;5093738;28;20390;-34
2021/08/25 03:54:29;;;;;;;0.80;0.80;;;22.10;51.60;;;25.76;35.30;102130.50;5093417;28;20052;-34
2021/08/25 03:56:55;;;;;;;0.95;0.73;;;22.10;51.60;;;25.75;35.43;102126.13;5093247;28;20097;-35
2021/08/25 03:59:22;;;;;;;0.90;0.75;;;22.10;51.60;;;25.77;35.24;102126.88;5093361;28;20056;-34
2021/08/25 04:01:49;;;;;;;0.52;0.52;;;22.10;51.60;;;25.75;35.19;102116.25;5093648;28;20109;-35
2021/08/25 04:04:16;;;;;;;0.60;0.60;;;22.10;51.60;;;25.77;35.14;102110.81;5093352;28;20056;-34
2021/08/25 04:06:42;;;;;;;0.70;0.70;;;22.10;51.60;;;25.79;35.25;102109.72;5093240;28;20048;-35
2021/08/25 04:09:08;;;;;;;0.77;0.70;;;22.10;51.60;;;25.78;35.20;102116.06;5093961;28;20078;-34
2021/08/25 04:11:34;;;;;;;0.60;0.60;;;22.10;51.50;;;25.80;35.14;102115.97;5093315;28;20040;-34
2021/08/25 04:14:01;;;;;;;0.60;0.60;;;22.10;51.50;;;25.78;35.24;102110.72;5093311;28;20062;-34
2021/08/25 04:16:27;;;;;;;0.70;0.70;;;22.10;51.50;;;25.79;35.07;102107.06;5093208;28;20374;-35
2021/08/25 04:18:56;;;;;;;0.70;0.70;;;22.10;51.50;;;25.77;35.12;102098.25;5093167;28;20044;-34
2021/08/25 04:21:22;;;;;;;0.77;0.73;;;22.10;51.50;;;25.79;34.94;102100.84;5093126;28;20139;-34
2021/08/25 04:23:48;;;;;;;0.77;0.77;;;22.10;51.50;;;25.81;35.09;102099.81;5093063;28;20055;-35
2021/08/25 04:26:14;;;;;;;0.73;0.73;;;22.10;51.50;;;25.80;35.21;102102.59;5092384;28;20143;-34
2021/08/25 04:28:40;;;;;;;0.77;0.70;;;22.10;51.60;;;25.83;35.09;102108.59;5093052;28;20052;-34
2021/08/25 04:31:08;;;;;;;0.70;0.60;;;22.10;51.50;;;25.82;35.13;102100.66;5093111;28;20094;-35
2021/08/25 04:33:34;;;;;;;0.80;0.70;;;22.10;52.00;;;25.78;35.14;102089.28;5092932;28;20506;-34
2021/08/25 04:36:00;;;;;;;0.80;0.70;;;22.10;51.60;;;25.82;35.12;102093.47;5093245;28;20079;-34
2021/08/25 04:38:26;;;;;;;0.60;0.60;;;22.10;51.50;;;25.82;35.05;102084.59;5093487;28;20047;-34
2021/08/25 04:40:53;;;;;;;0.70;0.65;;;22.10;51.50;;;25.81;35.15;102078.38;5092953;28;20054;-34
2021/08/25 04:43:19;;;;;;;0.68;0.65;;;22.10;51.50;;;25.80;35.18;102082.00;5092831;28;20044;-34
2021/08/25 04:45:45;;;;;;;0.60;0.60;;;22.10;51.50;;;25.84;35.11;102077.31;5093094;28;20489;-34
2021/08/25 04:48:11;;;;;;;0.60;0.60;;;22.10;51.50;;;25.84;35.15;102070.16;5092904;28;20118;-34
2021/08/25 04:50:36;;;;;;;0.70;0.63;;;22.10;51.50;;;25.82;35.08;102064.00;5093258;28;20226;-34
2021/08/25 04:53:07;;;;;;;0.57;0.57;;;22.10;51.50;;;25.85;35.08;102074.53;5092679;28;20063;-34
2021/08/25 04:55:39;;;;;;;0.80;0.80;;;22.10;51.50;;;25.84;35.08;102061.22;5093098;28;20460;-34
2021/08/25 04:58:06;;;;;;;0.60;0.60;;;22.10;51.50;;;25.86;34.85;102072.69;5092782;28;20062;-34
2021/08/25 05:00:32;;;;;;;0.60;0.60;;;22.10;51.50;;;25.86;35.07;102057.50;5092401;28;20098;-35
2021/08/25 05:02:58;;;;;;;0.60;0.60;;;22.20;51.50;;;25.91;35.00;102059.00;5092546;28;20060;-34
2021/08/25 05:05:24;;;;;;;0.70;0.70;;;22.20;51.40;;;25.92;34.94;102045.50;5092534;28;20374;-34
2021/08/25 05:07:50;;;;;;;0.70;0.70;;;22.20;51.30;;;25.96;34.92;102043.53;5092613;28;20127;-34
2021/08/25 05:10:17;;;;;;;0.50;0.50;;;22.20;51.20;;;25.98;34.88;102034.44;5092353;28;20044;-34
2021/08/25 05:12:43;;;;;;;0.70;0.70;;;22.30;51.20;;;26.03;34.83;102037.69;5092299;28;20440;-34
2021/08/25 05:15:10;;;;;;;0.70;0.70;;;22.30;51.20;;;26.08;34.85;102037.38;5092437;28;20048;-34
2021/08/25 05:17:36;;;;;;;0.57;0.57;;;22.30;51.20;;;26.09;34.68;102036.41;5089607;28;20048;-35
2021/08/25 05:20:05;;;;;;;0.60;0.60;;;22.30;51.10;;;26.12;34.72;102041.56;5092428;28;20048;-34
2021/08/25 05:22:31;;;;;;;0.52;0.52;;;22.40;51.10;;;26.21;34.55;102034.75;5092340;28;20490;-34
2021/08/25 05:24:56;;;;;;;0.70;0.70;;;22.40;50.90;;;26.25;34.58;102026.41;5092753;28;20116;-34
2021/08/25 05:27:23;;;;;;;0.80;0.70;;;22.50;50.80;;;26.35;34.34;102031.16;5092350;28;20048;-34
2021/08/25 05:29:49;;;;;;;0.50;0.50;;;22.60;50.70;;;26.40;34.26;102026.34;5092310;28;20047;-34
2021/08/25 05:32:15;;;;;;;0.80;0.77;;;22.60;50.60;;;26.45;34.05;102024.22;5093138;28;20091;-34
2021/08/25 05:34:41;;;;;;;0.73;0.73;;;22.60;50.40;;;26.52;34.10;102021.97;5095731;28;20105;-34
2021/08/25 05:37:06;;;;;;;0.95;0.60;;;22.70;50.30;;;26.61;34.06;102027.59;5095588;28;20054;-34
2021/08/25 05:39:32;;;;;;;0.88;0.77;;;22.80;50.30;;;26.67;33.69;102029.00;5095577;28;20055;-35
2021/08/25 05:41:58;;;;;;;0.60;0.60;;;22.80;50.10;;;26.73;33.87;102036.66;5095625;28;20052;-35
2021/08/25 05:44:24;;;;;;;0.57;0.57;;;22.90;50.10;;;26.77;33.76;102029.25;5095806;28;20109;-34
2021/08/25 05:46:50;;;;;;;0.60;0.60;;;22.90;50.00;;;26.83;33.54;102033.31;5095442;28;20050;-34
2021/08/25 05:49:15;;;;;;;0.63;0.63;;;22.90;49.90;;;26.82;33.70;102029.78;5095449;28;20079;-35
2021/08/25 05:51:41;;;;;;;0.70;0.70;;;22.90;50.00;;;26.85;33.37;102034.06;5095832;28;20056;-34
2021/08/25 05:54:09;;;;;;;0.52;0.52;;;22.80;50.10;;;26.80;33.77;102024.53;5095263;28;20052;-34
2021/08/25 05:56:35;;;;;;;0.82;0.63;;;22.80;50.20;;;26.77;33.35;102026.56;5095604;28;20496;-34
2021/08/25 05:59:00;;;;;;;0.70;0.70;;;22.70;50.20;;;26.78;33.70;102031.84;5095151;28;20142;-34
2021/08/25 06:01:26;;;;;;;0.73;0.73;;;22.70;50.30;;;26.74;33.74;102016.03;5095312;28;20406;-35
2021/08/25 06:03:52;;;;;;;0.52;0.52;;;22.70;50.30;;;26.76;33.62;102020.34;5095594;28;20069;-34
2021/08/25 06:06:18;;;;;;;0.68;0.68;;;22.80;50.30;;;26.74;33.65;102010.69;5095178;28;20566;-35
2021/08/25 06:08:44;;;;;;;0.68;0.60;;;22.70;50.20;;;26.77;33.61;102015.84;5095717;28;20102;-34
2021/08/25 06:11:09;;;;;;;0.70;0.70;;;22.70;50.20;;;26.74;33.67;102008.84;5095167;28;20048;-34
2021/08/25 06:13:35;;;;;;;1.05;0.95;;;22.70;50.20;;;26.73;33.62;102009.81;5095293;28;20051;-34
2021/08/25 06:16:01;;;;;;;0.60;0.60;;;22.80;50.30;;;26.78;33.71;102001.44;5095047;28;20541;-35
2021/08/25 06:18:27;;;;;;;0.47;0.47;;;22.80;50.20;;;26.86;33.76;102000.91;5095130;28;20518;-34
2021/08/25 06:20:53;;;;;;;0.55;0.55;;;22.90;50.00;;;26.93;33.59;101995.03;5095316;28;20393;-35
2021/08/25 06:23:19;;;;;;;0.68;0.68;;;23.10;49.80;;;27.04;33.42;101994.25;5093703;28;20540;-34
2021/08/25 06:25:45;;;;;;;0.60;0.60;;;23.10;49.60;;;27.15;33.25;101999.75;5094895;28;20055;-34
2021/08/25 06:28:11;;;;;;;0.63;0.63;;;23.20;49.40;;;27.21;33.02;101989.53;5094726;28;20044;-34
2021/08/25 06:30:37;;;;;;;0.70;0.70;;;23.30;49.30;;;27.29;32.83;101990.72;5094771;28;20044;-34
2021/08/25 06:33:03;;;;;;;0.52;0.52;;;23.30;49.10;;;27.41;32.64;101990.81;5094676;28;20048;-34
2021/08/25 06:35:28;;;;;;;0.75;0.75;;;23.40;49.00;;;27.46;32.65;101986.81;5095320;28;20056;-34
2021/08/25 06:37:54;;;;;;;0.50;0.50;;;23.50;48.80;;;27.56;32.64;101980.81;5094906;28;20056;-34
2021/08/25 06:40:20;;;;;;;0.68;0.52;;;23.60;48.70;;;27.61;32.37;101967.88;5094625;28;20089;-35
2021/08/25 06:42:46;;;;;;;0.60;0.60;;;23.60;48.60;;;27.66;32.29;101969.25;5076432;28;20075;-34
2021/08/25 06:45:12;;;;;;;0.60;0.60;;;23.60;48.40;;;27.73;32.13;101978.59;5075750;28;20044;-34
2021/08/25 06:47:38;;;;;;;0.63;0.63;;;23.70;48.50;;;27.80;32.27;101975.44;5095137;28;20097;-33
2021/08/25 06:50:06;;;;;;;0.60;0.60;;;23.70;48.40;;;27.78;32.13;101972.88;5094769;28;20402;-33
2021/08/25 06:52:32;;;;;;;0.68;0.65;;;23.70;48.40;;;27.79;31.93;101976.44;5094628;28;20036;-36
2021/08/25 06:54:57;;;;;;;0.50;0.50;;;23.60;48.50;;;27.74;32.22;101968.69;5094519;28;20105;-36
2021/08/25 06:57:24;;;;;;;0.50;0.50;;;23.50;48.60;;;27.64;32.02;101957.78;5094247;28;20138;-35
2021/08/25 06:59:50;;;;;;;0.50;0.50;;;23.40;48.80;;;27.61;32.33;101954.44;5094580;28;20397;-35
2021/08/25 07:02:16;;;;;;;0.57;0.57;;;23.40;49.00;;;27.58;32.40;101950.16;5094365;28;20135;-34
2021/08/25 07:04:47;;;;;;;0.70;0.70;;;23.30;49.00;;;27.54;32.16;101949.53;5094241;28;20055;-35
2021/08/25 07:07:14;;;;;;;0.60;0.60;;;23.40;49.10;;;27.58;32.20;101938.56;5094586;28;20055;-34
2021/08/25 07:09:41;;;;;;;0.60;0.60;;;23.40;49.00;;;27.60;32.26;101940.16;5094562;28;20047;-35
2021/08/25 07:12:07;;;;;;;0.60;0.60;;;23.50;48.80;;;27.64;32.46;101933.59;5093974;28;20508;-34
2021/08/25 07:14:33;;;;;;;0.88;0.70;;;23.50;48.70;;;27.62;32.28;101929.31;5092148;28;20056;-34
2021/08/25 07:16:59;;;;;;;0.77;0.77;;;23.50;48.80;;;27.65;31.96;101927.25;5094071;28;20051;-34
2021/08/25 07:19:25;;;;;;;0.60;0.60;;;23.50;48.80;;;27.63;32.13;101921.16;5093872;28;20136;-34
2021/08/25 07:21:51;;;;;;;0.63;0.63;;;23.50;48.70;;;27.67;32.00;101930.69;5093875;28;20044;-35
2021/08/25 07:24:17;;;;;;;0.65;0.60;;;23.50;48.70;;;27.70;32.22;101926.91;5093912;28;20044;-34
2021/08/25 07:26:42;;;;;;;0.68;0.68;;;23.50;48.60;;;27.66;32.17;101922.72;5093894;28;20043;-34
2021/08/25 07:29:08;;;;;;;0.60;0.60;;;23.50;48.60;;;27.64;32.11;101916.63;5093829;28;20043;-34
2021/08/25 07:31:34;;;;;;;0.50;0.50;;;23.50;48.70;;;27.62;32.18;101907.81;5093872;28;20121;-35
2021/08/25 07:34:00;;;;;;;0.73;0.70;;;23.50;48.70;;;27.66;31.99;101911.97;5093812;28;20070;-34
2021/08/25 07:36:26;;;;;;;0.93;0.70;;;23.50;48.70;;;27.72;32.17;101906.16;5094072;28;20489;-35
2021/08/25 07:38:52;;;;;;;0.50;0.50;;;23.60;48.60;;;27.81;32.13;101908.16;5093621;28;20040;-34
2021/08/25 07:41:18;;;;;;;0.55;0.55;;;23.70;48.40;;;27.85;32.11;101896.22;5093747;28;20063;-34
2021/08/25 07:43:44;;;;;;;0.60;0.60;;;23.70;48.20;;;27.95;31.91;101888.34;5093604;28;20068;-35
2021/08/25 07:46:11;;;;;;;0.70;0.70;;;23.90;48.10;;;28.02;31.66;101884.19;5093670;28;20044;-35
2021/08/25 07:48:37;;;;;;;0.60;0.60;;;23.90;47.90;;;28.09;31.86;101889.97;5093606;28;20143;-35
2021/08/25 07:51:08;;;;;;;0.50;0.50;;;23.90;47.90;;;28.07;31.55;101879.34;5093871;28;20055;-35
2021/08/25 07:53:35;;;;;;;0.57;0.57;;;23.90;47.90;;;28.08;31.41;101883.75;5093437;28;20047;-35
2021/08/25 07:56:01;;;;;;;0.63;0.63;;;23.90;47.90;;;28.04;31.66;101876.88;5092892;28;20552;-35
2021/08/25 07:58:27;;;;;;;0.63;0.63;;;23.80;48.00;;;28.00;31.40;101870.03;5093439;28;20048;-35
2021/08/25 08:00:53;;;;;;;0.57;0.57;;;23.70;48.10;;;27.96;31.79;101867.69;5093660;28;20044;-35
2021/08/25 08:03:18;;;;;;;0.45;0.45;;;23.70;48.20;;;27.87;31.75;101862.00;5093915;28;20044;-34
2021/08/25 08:05:44;;;;;;;0.65;0.65;;;23.70;48.30;;;27.89;31.86;101869.94;5093401;28;20048;-34
2021/08/25 08:08:10;;;;;;;0.60;0.60;;;23.70;48.30;;;27.92;31.61;101867.03;5093217;28;20056;-35
2021/08/25 08:10:36;;;;;;;0.60;0.60;;;23.80;48.30;;;27.98;31.68;101873.78;5093549;28;20055;-34
2021/08/25 08:13:02;;;;;;;0.50;0.50;;;23.90;48.00;;;28.04;31.66;101859.91;5093137;28;20139;-34
2021/08/25 08:15:30;;;;;;;1.00;0.82;;;23.80;47.80;;;28.06;31.62;101868.69;5093671;28;20481;-35
2021/08/25 08:17:56;;;;;;;1.05;0.70;;;23.80;47.90;;;28.00;31.45;101858.41;5092977;28;20083;-35
2021/08/25 08:20:22;;;;;;;0.65;0.65;;;23.80;48.00;;;27.97;31.58;101862.19;5092884;28;20489;-35
2021/08/25 08:22:48;;;;;;;0.70;0.70;;;23.80;48.10;;;27.93;31.74;101847.25;5093359;28;20143;-35
2021/08/25 08:25:14;;;;;;;0.63;0.63;;;23.80;48.10;;;27.99;31.80;101849.47;5093292;28;20082;-35
2021/08/25 08:27:41;;;;;;;0.80;0.70;;;23.80;48.10;;;28.04;31.42;101851.81;5092939;28;20043;-35
2021/08/25 08:30:07;;;;;;;0.50;0.50;;;23.90;48.00;;;28.04;31.66;101854.50;5093149;28;20044;-35
2021/08/25 08:32:34;;;;;;;0.50;0.50;;;23.80;47.90;;;28.01;31.67;101844.00;5092879;28;20044;-34
2021/08/25 08:35:00;;;;;;;0.70;0.70;;;23.80;47.90;;;27.97;31.66;101838.00;5075061;28;20059;-35
2021/08/25 08:37:27;;;;;;;0.65;0.65;;;23.80;48.00;;;27.94;31.47;101840.91;5093137;28;20056;-36
2021/08/25 08:39:54;;;;;;;0.60;0.60;;;23.80;48.10;;;27.99;31.80;101837.88;5092881;28;20048;-35
2021/08/25 08:42:30;;;;;;;0.60;0.60;;;23.80;47.90;;;28.02;31.72;101843.03;5093232;28;20047;-35
2021/08/25 08:44:58;;;;;;;0.60;0.60;;;23.90;47.90;;;28.03;31.45;101840.22;5093101;28;20499;-35
2021/08/25 08:47:27;;;;;;;0.60;0.60;;;23.90;47.80;;;28.01;31.67;101830.56;5074601;28;20113;-35
2021/08/25 08:49:58;;;;;;;1.00;1.00;;;23.80;47.80;;;28.00;31.80;101839.56;5092780;28;20051;-34
2021/08/25 08:52:26;;;;;;;0.63;0.60;;;23.80;47.90;;;27.97;31.79;101829.09;5092649;28;20048;-35
2021/08/25 08:54:54;;;;;;;0.60;0.60;;;23.80;47.90;;;27.90;31.79;101817.91;5092666;28;20051;-35
2021/08/25 08:57:22;;;;;;;0.52;0.52;;;23.80;48.00;;;27.87;31.68;101824.38;5092641;28;20048;-35
2021/08/25 08:59:48;;;;;;;0.63;0.63;;;23.70;48.10;;;27.85;31.62;101823.63;5092548;28;20554;-35
2021/08/25 09:02:42;;;;;;;0.60;0.60;;;23.70;48.70;;;27.82;31.93;101823.88;5092665;28;20044;-34
2021/08/25 09:05:22;;;;;;;0.70;0.70;;;23.70;48.10;;;27.84;31.77;101810.31;5092505;28;20048;-35
2021/08/25 09:07:51;;;;;;;0.60;0.60;;;23.70;48.10;;;27.87;31.91;101802.03;5091578;28;20051;-36
2021/08/25 09:10:30;;;;;;;1.27;1.17;;;23.80;48.10;;;27.86;31.98;101795.78;5092403;28;20052;-34
2021/08/25 09:13:10;;;;;;;0.60;0.60;;;23.80;48.10;;;27.83;32.03;101790.66;5092352;28;20055;-35
2021/08/25 09:15:41;;;;;;;0.68;0.60;;;23.80;48.00;;;27.84;31.68;101795.03;5092724;28;20104;-35
2021/08/25 09:18:15;;;;;;;0.60;0.60;;;23.80;48.00;;;27.86;31.72;101795.78;5092151;28;20067;-35
2021/08/25 09:20:48;;;;;;;1.08;0.85;;;23.80;48.00;;;27.88;31.53;101795.66;5092191;28;20040;-35
2021/08/25 09:23:19;;;;;;;0.68;0.68;;;23.80;47.90;;;27.86;31.96;101773.41;5092404;28;20044;-35
2021/08/25 09:26:07;;;;;;;0.70;0.70;;;23.90;47.90;;;27.89;31.83;101776.72;5092390;28;20500;-35
2021/08/25 09:28:36;;;;;;;0.68;0.68;;;23.90;47.90;;;27.93;31.65;101793.50;5092528;28;20143;-35
2021/08/25 09:31:08;;;;;;;0.55;0.55;;;23.90;47.80;;;27.94;31.71;101787.16;5092433;28;20446;-35
2021/08/25 09:33:39;;;;;;;0.73;0.73;;;23.90;47.80;;;27.95;31.90;101791.56;5092087;28;20104;-36
2021/08/25 09:36:13;;;;;;;;;;;23.90;47.70;;;28.09;31.28;101787.81;5092531;28;20116;-35
2021/08/25 09:38:51;;;;;;;0.60;0.60;;;23.90;47.70;;;28.02;31.43;101786.56;5091750;28;19916;-35
2021/08/25 09:41:16;;;;;;;0.70;0.70;;;23.90;47.70;;;27.99;31.59;101782.28;5092181;28;20193;-35
2021/08/25 09:43:48;;;;;;;0.75;0.75;;;23.90;47.70;;;28.01;31.80;101780.31;5092015;28;20056;-35
2021/08/25 09:46:21;;;;;;;0.70;0.70;;;24.00;47.70;;;28.01;31.91;101774.94;5074171;28;20045;-35
2021/08/25 09:48:49;;;;;;;0.82;0.73;;;24.00;47.70;;;28.04;31.66;101772.03;5073884;28;20052;-35
2021/08/25 09:51:19;;;;;;;0.50;0.50;;;24.10;47.60;;;28.06;31.58;101762.00;5092396;28;20161;-36
2021/08/25 09:53:47;;;;;;;0.70;0.70;;;24.10;47.50;;;28.10;31.69;101754.56;5091889;28;20493;-34
2021/08/25 09:56:27;;;;;;;0.65;0.65;;;24.10;47.40;;;28.11;31.66;101748.19;5091712;28;20048;-34
2021/08/25 09:58:55;;;;;;;0.67;0.67;;;24.20;47.40;;;28.15;31.47;101741.63;5091905;28;20450;-34
2021/08/25 10:01:22;;;;;;;1.77;0.75;;;24.20;47.40;;;28.20;31.67;101743.91;5092130;28;20048;-34
2021/08/25 10:03:48;;;;;;;0.60;0.60;;;24.20;47.30;;;28.21;31.38;101735.75;5091874;28;20046;-34
2021/08/25 10:06:19;;;;;;;0.60;0.60;;;24.20;47.20;;;28.24;31.33;101726.59;5092089;28;20451;-34
2021/08/25 10:08:46;;;;;;;1.00;0.70;;;24.20;47.20;;;28.27;31.51;101719.13;5091747;28;20052;-34
2021/08/25 10:11:13;;;;;;;0.60;0.60;;;24.30;47.20;;;28.29;31.57;101716.31;5092229;28;20044;-34
2021/08/25 10:13:40;;;;;;;0.93;0.75;;;24.30;47.10;;;28.24;31.20;101703.22;5091527;28;20044;-34